sensor_id;sensor_type;location;lat;lon;timestamp;pressure;altitude;pressure_sealevel;temperature;humidity
56142;BME280;42018;48.588;10.836;2023-05-08T00:05:05;97032.00;;;15.90;85.37
56142;BME280;42018;48.588;10.836;2023-05-08T00:07:50;97031.34;;;15.79;86.40
56142;BME280;42018;48.588;10.836;2023-05-08T00:20:55;97033.22;;;15.60;87.29
56142;BME280;42018;48.588;10.836;2023-05-08T00:30:33;97034.03;;;15.79;86.75
56142;BME280;42018;48.588;10.836;2023-05-08T01:51:24;97052.94;;;16.16;75.96
56142;BME280;42018;48.588;10.836;2023-05-08T02:07:38;97067.56;;;16.04;74.13
56142;BME280;42018;48.588;10.836;2023-05-08T02:17:16;97063.06;;;16.00;73.19
56142;BME280;42018;48.588;10.836;2023-05-08T02:23:09;97067.69;;;16.13;71.56
56142;BME280;42018;48.588;10.836;2023-05-08T02:32:51;97064.06;;;16.23;69.56
56142;BME280;42018;48.588;10.836;2023-05-08T02:38:53;97079.00;;;16.24;69.25
56142;BME280;42018;48.588;10.836;2023-05-08T02:45:12;97079.16;;;16.14;68.59
56142;BME280;42018;48.588;10.836;2023-05-08T02:48:26;97079.38;;;16.17;68.99
56142;BME280;42018;48.588;10.836;2023-05-08T02:51:32;97086.91;;;16.15;69.20
56142;BME280;42018;48.588;10.836;2023-05-08T03:06:35;97091.00;;;15.51;68.58
56142;BME280;42018;48.588;10.836;2023-05-08T03:12:47;97090.34;;;15.40;67.47
56142;BME280;42018;48.588;10.836;2023-05-08T03:19:05;97090.75;;;15.09;68.65
56142;BME280;42018;48.588;10.836;2023-05-08T03:21:51;97086.13;;;15.15;68.22
56142;BME280;42018;48.588;10.836;2023-05-08T03:24:38;97088.09;;;15.09;68.25
56142;BME280;42018;48.588;10.836;2023-05-08T03:27:24;97091.63;;;15.05;68.98
56142;BME280;42018;48.588;10.836;2023-05-08T03:30:37;97087.88;;;15.06;67.81
56142;BME280;42018;48.588;10.836;2023-05-08T03:33:24;97092.75;;;14.99;67.50
56142;BME280;42018;48.588;10.836;2023-05-08T03:36:10;97095.06;;;14.81;68.10
56142;BME280;42018;48.588;10.836;2023-05-08T03:38:58;97094.31;;;14.76;67.86
56142;BME280;42018;48.588;10.836;2023-05-08T03:41:43;97087.06;;;14.57;68.47
56142;BME280;42018;48.588;10.836;2023-05-08T03:44:50;97091.03;;;14.60;68.76
56142;BME280;42018;48.588;10.836;2023-05-08T03:51:10;97099.44;;;14.43;70.40
56142;BME280;42018;48.588;10.836;2023-05-08T03:53:56;97097.59;;;14.38;70.24
56142;BME280;42018;48.588;10.836;2023-05-08T03:56:51;97103.38;;;14.51;69.73
56142;BME280;42018;48.588;10.836;2023-05-08T04:09:30;97103.09;;;14.81;68.98
56142;BME280;42018;48.588;10.836;2023-05-08T04:12:23;97103.25;;;14.90;68.92
56142;BME280;42018;48.588;10.836;2023-05-08T04:15:13;97117.19;;;14.87;70.23
56142;BME280;42018;48.588;10.836;2023-05-08T04:18:03;97114.94;;;14.70;69.34
56142;BME280;42018;48.588;10.836;2023-05-08T04:20:50;97123.97;;;14.74;69.01
56142;BME280;42018;48.588;10.836;2023-05-08T04:23:40;97130.47;;;14.63;68.90
56142;BME280;42018;48.588;10.836;2023-05-08T04:30:09;97139.50;;;14.33;68.71
56142;BME280;42018;48.588;10.836;2023-05-08T04:32:54;97138.34;;;14.44;69.52
56142;BME280;42018;48.588;10.836;2023-05-08T04:35:38;97135.91;;;14.53;70.12
56142;BME280;42018;48.588;10.836;2023-05-08T04:38:26;97151.91;;;14.48;69.24
56142;BME280;42018;48.588;10.836;2023-05-08T04:41:12;97153.78;;;14.47;69.87
56142;BME280;42018;48.588;10.836;2023-05-08T04:44:02;97152.19;;;14.46;69.39
56142;BME280;42018;48.588;10.836;2023-05-08T04:46:48;97150.38;;;14.42;69.33
56142;BME280;42018;48.588;10.836;2023-05-08T04:49:34;97155.72;;;14.36;69.73
56142;BME280;42018;48.588;10.836;2023-05-08T04:52:20;97160.31;;;14.31;69.50
56142;BME280;42018;48.588;10.836;2023-05-08T04:55:09;97162.59;;;14.08;71.31
56142;BME280;42018;48.588;10.836;2023-05-08T04:57:55;97159.88;;;14.19;71.00
56142;BME280;42018;48.588;10.836;2023-05-08T05:00:43;97167.19;;;14.37;70.62
56142;BME280;42018;48.588;10.836;2023-05-08T05:06:51;97172.19;;;14.44;70.16
56142;BME280;42018;48.588;10.836;2023-05-08T05:09:37;97173.28;;;14.43;70.98
56142;BME280;42018;48.588;10.836;2023-05-08T05:12:23;97177.16;;;14.60;70.59
56142;BME280;42018;48.588;10.836;2023-05-08T05:15:08;97174.19;;;14.62;70.70
56142;BME280;42018;48.588;10.836;2023-05-08T05:17:54;97188.13;;;14.59;70.96
56142;BME280;42018;48.588;10.836;2023-05-08T05:20:57;97177.28;;;14.40;71.80
56142;BME280;42018;48.588;10.836;2023-05-08T05:23:43;97178.44;;;14.29;72.42
56142;BME280;42018;48.588;10.836;2023-05-08T05:26:39;97187.41;;;14.09;73.43
56142;BME280;42018;48.588;10.836;2023-05-08T05:29:25;97186.81;;;14.12;74.74
56142;BME280;42018;48.588;10.836;2023-05-08T08:22:30;97235.25;;;14.24;75.69
56142;BME280;42018;48.588;10.836;2023-05-08T08:25:15;97235.50;;;14.28;76.08
56142;BME280;42018;48.588;10.836;2023-05-08T08:28:09;97240.38;;;14.55;74.31
56142;BME280;42018;48.588;10.836;2023-05-08T08:31:00;97239.25;;;14.66;73.75
56142;BME280;42018;48.588;10.836;2023-05-08T08:33:56;97240.59;;;14.64;73.28
56142;BME280;42018;48.588;10.836;2023-05-08T08:36:42;97243.38;;;14.48;74.09
56142;BME280;42018;48.588;10.836;2023-05-08T08:42:38;97246.03;;;14.48;75.98
56142;BME280;42018;48.588;10.836;2023-05-08T08:45:26;97239.63;;;14.44;73.54
56142;BME280;42018;48.588;10.836;2023-05-08T08:48:12;97243.91;;;14.50;73.71
56142;BME280;42018;48.588;10.836;2023-05-08T08:51:08;97247.56;;;14.15;75.41
56142;BME280;42018;48.588;10.836;2023-05-08T08:57:23;97247.16;;;14.37;74.85
56142;BME280;42018;48.588;10.836;2023-05-08T09:03:34;97246.25;;;14.57;74.39
56142;BME280;42018;48.588;10.836;2023-05-08T09:06:19;97242.03;;;14.46;74.93
56142;BME280;42018;48.588;10.836;2023-05-08T09:09:13;97244.47;;;14.42;74.85
56142;BME280;42018;48.588;10.836;2023-05-08T09:11:58;97252.97;;;14.44;74.68
56142;BME280;42018;48.588;10.836;2023-05-08T09:14:44;97251.91;;;14.50;74.73
56142;BME280;42018;48.588;10.836;2023-05-08T09:17:30;97252.13;;;14.54;74.15
56142;BME280;42018;48.588;10.836;2023-05-08T09:20:13;97243.91;;;14.50;73.95
56142;BME280;42018;48.588;10.836;2023-05-08T09:23:00;97245.38;;;14.67;73.60
56142;BME280;42018;48.588;10.836;2023-05-08T09:25:48;97244.06;;;14.64;73.62
56142;BME280;42018;48.588;10.836;2023-05-08T09:28:37;97252.19;;;14.44;73.72
56142;BME280;42018;48.588;10.836;2023-05-08T09:48:39;97260.09;;;14.14;77.14
56142;BME280;42018;48.588;10.836;2023-05-08T09:51:49;97261.13;;;14.19;76.16
56142;BME280;42018;48.588;10.836;2023-05-08T09:57:58;97261.38;;;14.22;75.51
56142;BME280;42018;48.588;10.836;2023-05-08T10:21:14;97277.56;;;14.80;73.83
56142;BME280;42018;48.588;10.836;2023-05-08T10:24:00;97273.03;;;14.76;71.94
56142;BME280;42018;48.588;10.836;2023-05-08T10:27:00;97279.44;;;14.80;72.20
56142;BME280;42018;48.588;10.836;2023-05-08T10:33:40;97262.38;;;14.76;71.42
56142;BME280;42018;48.588;10.836;2023-05-08T10:36:29;97264.72;;;14.82;72.07
56142;BME280;42018;48.588;10.836;2023-05-08T10:39:17;97267.84;;;14.95;72.08
56142;BME280;42018;48.588;10.836;2023-05-08T10:42:08;97272.47;;;14.84;71.83
56142;BME280;42018;48.588;10.836;2023-05-08T10:48:17;97272.50;;;14.79;71.65
56142;BME280;42018;48.588;10.836;2023-05-08T10:51:12;97268.72;;;14.85;71.39
56142;BME280;42018;48.588;10.836;2023-05-08T10:54:24;97264.16;;;14.85;71.76
56142;BME280;42018;48.588;10.836;2023-05-08T10:57:09;97260.06;;;14.98;69.84
56142;BME280;42018;48.588;10.836;2023-05-08T10:59:54;97258.91;;;15.09;71.11
56142;BME280;42018;48.588;10.836;2023-05-08T11:02:40;97258.47;;;15.26;72.22
56142;BME280;42018;48.588;10.836;2023-05-08T11:05:25;97252.50;;;15.35;72.45
56142;BME280;42018;48.588;10.836;2023-05-08T11:08:13;97255.41;;;15.38;71.88
56142;BME280;42018;48.588;10.836;2023-05-08T11:13:58;97256.25;;;15.33;70.01
56142;BME280;42018;48.588;10.836;2023-05-08T11:19:38;97257.97;;;15.48;70.17
56142;BME280;42018;48.588;10.836;2023-05-08T11:22:40;97253.91;;;15.51;69.25
56142;BME280;42018;48.588;10.836;2023-05-08T11:25:40;97250.75;;;15.49;71.60
56142;BME280;42018;48.588;10.836;2023-05-08T11:28:26;97245.00;;;15.66;71.48
56142;BME280;42018;48.588;10.836;2023-05-08T11:31:11;97248.38;;;15.71;71.09
56142;BME280;42018;48.588;10.836;2023-05-08T11:33:56;97246.44;;;15.53;72.57
56142;BME280;42018;48.588;10.836;2023-05-08T11:36:42;97248.91;;;15.73;71.17
56142;BME280;42018;48.588;10.836;2023-05-08T11:39:44;97243.88;;;15.91;72.08
56142;BME280;42018;48.588;10.836;2023-05-08T11:45:15;97244.75;;;15.62;74.75
56142;BME280;42018;48.588;10.836;2023-05-08T11:48:00;97239.53;;;15.76;73.81
56142;BME280;42018;48.588;10.836;2023-05-08T11:50:45;97250.81;;;15.92;74.57
56142;BME280;42018;48.588;10.836;2023-05-08T11:53:31;97233.56;;;16.03;71.67
56142;BME280;42018;48.588;10.836;2023-05-08T11:56:17;97242.56;;;15.88;72.65
56142;BME280;42018;48.588;10.836;2023-05-08T11:59:03;97241.56;;;15.84;74.10
56142;BME280;42018;48.588;10.836;2023-05-08T12:01:49;97238.22;;;15.73;72.50
56142;BME280;42018;48.588;10.836;2023-05-08T12:04:44;97241.00;;;15.87;73.47
56142;BME280;42018;48.588;10.836;2023-05-08T12:07:30;97233.69;;;15.93;72.56
56142;BME280;42018;48.588;10.836;2023-05-08T12:10:15;97236.22;;;16.03;72.36
56142;BME280;42018;48.588;10.836;2023-05-08T12:13:01;97240.63;;;15.94;73.17
56142;BME280;42018;48.588;10.836;2023-05-08T12:15:46;97231.91;;;16.07;72.63
56142;BME280;42018;48.588;10.836;2023-05-08T12:18:32;97231.66;;;16.03;73.03
56142;BME280;42018;48.588;10.836;2023-05-08T12:21:17;97226.78;;;16.30;71.27
56142;BME280;42018;48.588;10.836;2023-05-08T12:24:06;97235.34;;;16.08;73.22
56142;BME280;42018;48.588;10.836;2023-05-08T12:26:52;97235.34;;;15.89;73.80
56142;BME280;42018;48.588;10.836;2023-05-08T12:29:42;97237.56;;;15.82;74.48
56142;BME280;42018;48.588;10.836;2023-05-08T12:32:28;97228.78;;;16.00;73.64
56142;BME280;42018;48.588;10.836;2023-05-08T12:35:13;97228.22;;;16.03;72.34
56142;BME280;42018;48.588;10.836;2023-05-08T12:38:00;97226.19;;;16.14;70.82
56142;BME280;42018;48.588;10.836;2023-05-08T12:40:46;97228.28;;;16.17;70.71
56142;BME280;42018;48.588;10.836;2023-05-08T12:43:36;97221.94;;;16.13;69.18
56142;BME280;42018;48.588;10.836;2023-05-08T12:46:22;97223.69;;;16.22;69.91
56142;BME280;42018;48.588;10.836;2023-05-08T12:49:07;97223.94;;;16.21;68.53
56142;BME280;42018;48.588;10.836;2023-05-08T12:52:03;97219.75;;;16.34;69.63
56142;BME280;42018;48.588;10.836;2023-05-08T12:54:48;97221.00;;;16.22;69.64
56142;BME280;42018;48.588;10.836;2023-05-08T12:57:34;97219.59;;;16.25;70.67
56142;BME280;42018;48.588;10.836;2023-05-08T13:00:20;97214.31;;;16.39;71.21
56142;BME280;42018;48.588;10.836;2023-05-08T13:03:06;97218.38;;;16.36;69.04
56142;BME280;42018;48.588;10.836;2023-05-08T13:05:53;97219.00;;;16.47;68.32
56142;BME280;42018;48.588;10.836;2023-05-08T13:08:38;97214.47;;;16.47;68.31
56142;BME280;42018;48.588;10.836;2023-05-08T13:11:27;97211.41;;;16.54;68.33
56142;BME280;42018;48.588;10.836;2023-05-08T13:14:14;97209.56;;;16.68;67.50
56142;BME280;42018;48.588;10.836;2023-05-08T13:16:59;97206.56;;;16.75;68.46
56142;BME280;42018;48.588;10.836;2023-05-08T13:19:44;97205.91;;;16.83;65.94
56142;BME280;42018;48.588;10.836;2023-05-08T13:22:29;97204.03;;;16.97;67.29
56142;BME280;42018;48.588;10.836;2023-05-08T13:25:15;97202.25;;;17.07;65.42
56142;BME280;42018;48.588;10.836;2023-05-08T13:28:00;97196.91;;;17.07;64.15
56142;BME280;42018;48.588;10.836;2023-05-08T13:30:45;97202.38;;;17.02;64.76
56142;BME280;42018;48.588;10.836;2023-05-08T13:33:30;97194.13;;;16.98;64.40
56142;BME280;42018;48.588;10.836;2023-05-08T13:36:16;97192.75;;;17.14;65.96
56142;BME280;42018;48.588;10.836;2023-05-08T13:39:01;97189.25;;;17.00;65.59
56142;BME280;42018;48.588;10.836;2023-05-08T13:41:46;97191.16;;;17.13;67.42
56142;BME280;42018;48.588;10.836;2023-05-08T13:44:31;97181.63;;;17.07;66.33
56142;BME280;42018;48.588;10.836;2023-05-08T13:47:17;97188.00;;;17.11;65.57
56142;BME280;42018;48.588;10.836;2023-05-08T13:50:02;97187.50;;;17.09;64.75
56142;BME280;42018;48.588;10.836;2023-05-08T13:52:47;97185.63;;;17.23;64.99
56142;BME280;42018;48.588;10.836;2023-05-08T13:55:33;97183.84;;;17.33;63.38
56142;BME280;42018;48.588;10.836;2023-05-08T13:58:18;97191.19;;;17.41;64.47
56142;BME280;42018;48.588;10.836;2023-05-08T14:01:03;97186.63;;;17.41;64.61
56142;BME280;42018;48.588;10.836;2023-05-08T14:03:49;97186.41;;;17.38;62.71
56142;BME280;42018;48.588;10.836;2023-05-08T14:06:34;97193.88;;;17.41;60.71
56142;BME280;42018;48.588;10.836;2023-05-08T14:09:19;97179.69;;;17.40;62.84
56142;BME280;42018;48.588;10.836;2023-05-08T14:12:04;97181.84;;;17.52;62.29
56142;BME280;42018;48.588;10.836;2023-05-08T14:14:50;97179.34;;;17.69;66.24
56142;BME280;42018;48.588;10.836;2023-05-08T14:17:35;97177.78;;;17.82;63.22
56142;BME280;42018;48.588;10.836;2023-05-08T14:20:20;97182.09;;;17.92;64.00
56142;BME280;42018;48.588;10.836;2023-05-08T14:23:05;97183.22;;;17.91;61.15
56142;BME280;42018;48.588;10.836;2023-05-08T14:25:51;97182.31;;;17.68;61.73
56142;BME280;42018;48.588;10.836;2023-05-08T14:28:36;97177.47;;;17.42;62.03
56142;BME280;42018;48.588;10.836;2023-05-08T14:31:21;97177.28;;;17.53;63.12
56142;BME280;42018;48.588;10.836;2023-05-08T14:34:06;97179.38;;;17.56;61.75
56142;BME280;42018;48.588;10.836;2023-05-08T14:36:52;97170.03;;;17.53;62.67
56142;BME280;42018;48.588;10.836;2023-05-08T14:39:37;97166.66;;;17.61;62.66
56142;BME280;42018;48.588;10.836;2023-05-08T14:42:22;97162.88;;;17.62;60.56
56142;BME280;42018;48.588;10.836;2023-05-08T14:45:07;97161.50;;;17.79;62.24
56142;BME280;42018;48.588;10.836;2023-05-08T14:47:53;97166.16;;;17.73;62.35
56142;BME280;42018;48.588;10.836;2023-05-08T14:50:38;97157.56;;;17.99;62.53
56142;BME280;42018;48.588;10.836;2023-05-08T14:53:23;97156.72;;;17.89;61.58
56142;BME280;42018;48.588;10.836;2023-05-08T14:56:09;97155.44;;;17.73;62.43
56142;BME280;42018;48.588;10.836;2023-05-08T14:58:54;97157.97;;;17.92;62.18
56142;BME280;42018;48.588;10.836;2023-05-08T15:01:39;97154.63;;;17.73;62.67
56142;BME280;42018;48.588;10.836;2023-05-08T15:04:26;97157.53;;;17.76;63.64
56142;BME280;42018;48.588;10.836;2023-05-08T15:07:13;97160.22;;;17.76;61.52
56142;BME280;42018;48.588;10.836;2023-05-08T15:09:58;97160.47;;;17.75;61.74
56142;BME280;42018;48.588;10.836;2023-05-08T15:12:43;97162.00;;;17.81;61.43
56142;BME280;42018;48.588;10.836;2023-05-08T15:15:28;97161.78;;;17.77;61.01
56142;BME280;42018;48.588;10.836;2023-05-08T15:18:14;97158.31;;;17.77;60.85
56142;BME280;42018;48.588;10.836;2023-05-08T15:20:59;97156.03;;;17.70;60.41
56142;BME280;42018;48.588;10.836;2023-05-08T15:23:44;97164.25;;;17.87;60.52
56142;BME280;42018;48.588;10.836;2023-05-08T15:26:29;97160.78;;;17.87;59.83
56142;BME280;42018;48.588;10.836;2023-05-08T15:29:15;97167.38;;;18.03;59.69
56142;BME280;42018;48.588;10.836;2023-05-08T15:32:00;97169.38;;;18.34;58.30
56142;BME280;42018;48.588;10.836;2023-05-08T15:34:46;97166.03;;;18.51;59.45
56142;BME280;42018;48.588;10.836;2023-05-08T15:37:31;97152.72;;;18.46;57.49
56142;BME280;42018;48.588;10.836;2023-05-08T15:40:16;97156.84;;;18.74;58.25
56142;BME280;42018;48.588;10.836;2023-05-08T15:43:01;97143.69;;;18.86;58.46
56142;BME280;42018;48.588;10.836;2023-05-08T15:45:47;97146.88;;;18.97;58.15
56142;BME280;42018;48.588;10.836;2023-05-08T15:48:33;97150.50;;;18.93;57.57
56142;BME280;42018;48.588;10.836;2023-05-08T15:51:18;97141.00;;;18.95;58.66
56142;BME280;42018;48.588;10.836;2023-05-08T15:54:03;97138.38;;;18.73;57.17
56142;BME280;42018;48.588;10.836;2023-05-08T15:56:48;97147.56;;;18.72;58.30
56142;BME280;42018;48.588;10.836;2023-05-08T15:59:34;97145.69;;;18.81;58.54
56142;BME280;42018;48.588;10.836;2023-05-08T16:02:21;97148.16;;;19.00;58.62
56142;BME280;42018;48.588;10.836;2023-05-08T16:05:06;97148.16;;;19.00;58.29
56142;BME280;42018;48.588;10.836;2023-05-08T16:07:52;97149.16;;;18.59;57.87
56142;BME280;42018;48.588;10.836;2023-05-08T16:10:39;97147.84;;;18.48;57.40
56142;BME280;42018;48.588;10.836;2023-05-08T16:13:25;97149.41;;;18.49;58.27
56142;BME280;42018;48.588;10.836;2023-05-08T16:16:10;97153.03;;;18.44;58.77
56142;BME280;42018;48.588;10.836;2023-05-08T16:18:55;97148.44;;;18.45;58.02
56142;BME280;42018;48.588;10.836;2023-05-08T16:21:41;97154.84;;;18.57;58.72
56142;BME280;42018;48.588;10.836;2023-05-08T16:24:26;97147.34;;;18.46;58.02
56142;BME280;42018;48.588;10.836;2023-05-08T16:27:11;97149.25;;;18.45;58.37
56142;BME280;42018;48.588;10.836;2023-05-08T16:29:56;97146.09;;;18.43;58.81
56142;BME280;42018;48.588;10.836;2023-05-08T16:32:42;97147.03;;;18.25;58.82
56142;BME280;42018;48.588;10.836;2023-05-08T16:35:29;97147.41;;;18.09;59.54
56142;BME280;42018;48.588;10.836;2023-05-08T16:38:16;97145.75;;;18.00;59.57
56142;BME280;42018;48.588;10.836;2023-05-08T16:41:02;97145.66;;;18.05;59.58
56142;BME280;42018;48.588;10.836;2023-05-08T16:43:48;97144.47;;;17.97;59.30
56142;BME280;42018;48.588;10.836;2023-05-08T16:46:33;97143.63;;;18.10;59.11
56142;BME280;42018;48.588;10.836;2023-05-08T16:49:18;97149.47;;;18.12;58.87
56142;BME280;42018;48.588;10.836;2023-05-08T16:52:03;97156.66;;;18.03;58.40
56142;BME280;42018;48.588;10.836;2023-05-08T16:54:49;97152.94;;;17.90;59.14
56142;BME280;42018;48.588;10.836;2023-05-08T16:57:34;97148.31;;;17.82;60.04
56142;BME280;42018;48.588;10.836;2023-05-08T17:00:20;97146.28;;;17.88;60.13
56142;BME280;42018;48.588;10.836;2023-05-08T17:03:06;97151.66;;;17.88;59.23
56142;BME280;42018;48.588;10.836;2023-05-08T17:05:51;97154.06;;;17.76;59.27
56142;BME280;42018;48.588;10.836;2023-05-08T17:08:37;97153.22;;;17.75;59.34
56142;BME280;42018;48.588;10.836;2023-05-08T17:11:22;97157.13;;;17.83;59.91
56142;BME280;42018;48.588;10.836;2023-05-08T17:14:07;97161.56;;;17.74;58.24
56142;BME280;42018;48.588;10.836;2023-05-08T17:16:53;97157.53;;;17.76;58.00
56142;BME280;42018;48.588;10.836;2023-05-08T17:19:38;97156.75;;;17.76;58.20
56142;BME280;42018;48.588;10.836;2023-05-08T17:22:23;97159.69;;;17.74;58.26
56142;BME280;42018;48.588;10.836;2023-05-08T17:25:09;97155.22;;;17.69;59.12
56142;BME280;42018;48.588;10.836;2023-05-08T17:27:54;97164.25;;;17.74;58.91
56142;BME280;42018;48.588;10.836;2023-05-08T17:30:39;97167.66;;;17.65;58.82
56142;BME280;42018;48.588;10.836;2023-05-08T17:33:25;97166.66;;;17.61;58.44
56142;BME280;42018;48.588;10.836;2023-05-08T17:36:10;97174.72;;;17.61;58.60
56142;BME280;42018;48.588;10.836;2023-05-08T17:38:56;97177.38;;;17.61;58.84
56142;BME280;42018;48.588;10.836;2023-05-08T17:41:41;97169.34;;;17.61;58.05
56142;BME280;42018;48.588;10.836;2023-05-08T17:44:26;97184.13;;;17.59;59.54
56142;BME280;42018;48.588;10.836;2023-05-08T17:47:11;97190.47;;;17.49;60.64
56142;BME280;42018;48.588;10.836;2023-05-08T17:49:57;97180.47;;;17.55;59.90
56142;BME280;42018;48.588;10.836;2023-05-08T17:52:42;97185.63;;;17.51;59.95
56142;BME280;42018;48.588;10.836;2023-05-08T17:55:27;97185.91;;;17.50;58.62
56142;BME280;42018;48.588;10.836;2023-05-08T17:58:15;97194.75;;;17.50;58.31
56142;BME280;42018;48.588;10.836;2023-05-08T18:01:00;97194.66;;;17.41;57.46
56142;BME280;42018;48.588;10.836;2023-05-08T18:03:45;97188.97;;;17.43;58.25
56142;BME280;42018;48.588;10.836;2023-05-08T18:06:32;97182.84;;;17.42;58.72
56142;BME280;42018;48.588;10.836;2023-05-08T18:09:17;97184.06;;;17.36;59.14
56142;BME280;42018;48.588;10.836;2023-05-08T18:12:03;97178.06;;;17.39;58.21
56142;BME280;42018;48.588;10.836;2023-05-08T18:14:48;97187.72;;;17.27;59.04
56142;BME280;42018;48.588;10.836;2023-05-08T18:17:33;97192.75;;;17.14;59.33
56142;BME280;42018;48.588;10.836;2023-05-08T18:20:18;97187.13;;;17.16;59.39
56142;BME280;42018;48.588;10.836;2023-05-08T18:23:07;97189.47;;;17.17;58.96
56142;BME280;42018;48.588;10.836;2023-05-08T18:25:52;97185.53;;;17.15;58.57
56142;BME280;42018;48.588;10.836;2023-05-08T18:28:37;97196.91;;;17.07;59.18
56142;BME280;42018;48.588;10.836;2023-05-08T18:31:23;97200.78;;;17.01;59.68
56142;BME280;42018;48.588;10.836;2023-05-08T18:34:08;97196.47;;;16.86;59.58
56142;BME280;42018;48.588;10.836;2023-05-08T18:36:53;97199.75;;;16.83;58.62
56142;BME280;42018;48.588;10.836;2023-05-08T18:39:38;97197.78;;;16.88;58.08
56142;BME280;42018;48.588;10.836;2023-05-08T18:42:24;97205.13;;;16.83;57.71
56142;BME280;42018;48.588;10.836;2023-05-08T18:45:09;97204.41;;;16.77;58.78
56142;BME280;42018;48.588;10.836;2023-05-08T18:47:55;97209.50;;;16.73;60.43
56142;BME280;42018;48.588;10.836;2023-05-08T18:50:41;97205.97;;;16.78;59.91
56142;BME280;42018;48.588;10.836;2023-05-08T18:53:26;97208.72;;;16.73;59.71
56142;BME280;42018;48.588;10.836;2023-05-08T18:56:11;97208.31;;;16.66;60.59
56142;BME280;42018;48.588;10.836;2023-05-08T18:58:57;97210.66;;;16.67;60.49
56142;BME280;42018;48.588;10.836;2023-05-08T19:01:43;97207.94;;;16.72;59.79
56142;BME280;42018;48.588;10.836;2023-05-08T19:04:29;97211.31;;;16.78;58.87
56142;BME280;42018;48.588;10.836;2023-05-08T19:07:14;97209.09;;;16.66;59.27
56142;BME280;42018;48.588;10.836;2023-05-08T19:10:00;97214.06;;;16.73;58.76
56142;BME280;42018;48.588;10.836;2023-05-08T19:12:45;97211.81;;;16.61;60.28
56142;BME280;42018;48.588;10.836;2023-05-08T19:15:31;97215.69;;;16.55;60.58
56142;BME280;42018;48.588;10.836;2023-05-08T19:18:16;97218.84;;;16.57;60.69
56142;BME280;42018;48.588;10.836;2023-05-08T19:21:02;97225.44;;;16.46;60.77
56142;BME280;42018;48.588;10.836;2023-05-08T19:23:47;97222.28;;;16.44;60.76
56142;BME280;42018;48.588;10.836;2023-05-08T19:26:32;97219.63;;;16.44;61.27
56142;BME280;42018;48.588;10.836;2023-05-08T19:29:17;97212.44;;;16.39;60.48
56142;BME280;42018;48.588;10.836;2023-05-08T19:32:03;97219.25;;;16.32;61.95
56142;BME280;42018;48.588;10.836;2023-05-08T19:34:48;97214.69;;;16.32;61.23
56142;BME280;42018;48.588;10.836;2023-05-08T19:37:34;97214.91;;;16.17;61.67
56142;BME280;42018;48.588;10.836;2023-05-08T19:40:19;97219.97;;;16.18;61.85
56142;BME280;42018;48.588;10.836;2023-05-08T19:43:04;97218.97;;;16.14;62.06
56142;BME280;42018;48.588;10.836;2023-05-08T19:45:50;97224.59;;;16.13;62.17
56142;BME280;42018;48.588;10.836;2023-05-08T19:48:35;97221.72;;;16.09;62.27
56142;BME280;42018;48.588;10.836;2023-05-08T19:51:20;97218.25;;;16.09;62.32
56142;BME280;42018;48.588;10.836;2023-05-08T19:54:05;97212.69;;;16.05;62.24
56142;BME280;42018;48.588;10.836;2023-05-08T19:56:51;97215.78;;;15.93;63.54
56142;BME280;42018;48.588;10.836;2023-05-08T19:59:36;97213.97;;;15.89;63.55
56142;BME280;42018;48.588;10.836;2023-05-08T20:02:21;97214.53;;;15.86;64.17
56142;BME280;42018;48.588;10.836;2023-05-08T20:05:07;97216.84;;;15.92;64.23
56142;BME280;42018;48.588;10.836;2023-05-08T20:07:52;97209.19;;;15.86;64.49
56142;BME280;42018;48.588;10.836;2023-05-08T20:10:37;97218.59;;;15.83;63.65
56142;BME280;42018;48.588;10.836;2023-05-08T20:13:22;97211.16;;;15.80;62.97
56142;BME280;42018;48.588;10.836;2023-05-08T20:16:08;97213.72;;;15.66;63.83
56142;BME280;42018;48.588;10.836;2023-05-08T20:18:53;97221.09;;;15.74;63.36
56142;BME280;42018;48.588;10.836;2023-05-08T20:21:38;97219.72;;;15.53;64.17
56142;BME280;42018;48.588;10.836;2023-05-08T20:24:24;97215.47;;;15.52;64.09
56142;BME280;42018;48.588;10.836;2023-05-08T20:27:09;97212.06;;;15.46;64.06
56142;BME280;42018;48.588;10.836;2023-05-08T20:29:55;97208.25;;;15.52;63.96
56142;BME280;42018;48.588;10.836;2023-05-08T20:32:40;97211.41;;;15.54;64.14
56142;BME280;42018;48.588;10.836;2023-05-08T20:35:25;97214.16;;;15.49;64.29
56142;BME280;42018;48.588;10.836;2023-05-08T20:38:11;97206.94;;;15.50;64.27
56142;BME280;42018;48.588;10.836;2023-05-08T20:40:56;97210.75;;;15.44;64.26
56142;BME280;42018;48.588;10.836;2023-05-08T20:43:41;97207.84;;;15.40;64.77
56142;BME280;42018;48.588;10.836;2023-05-08T20:46:26;97208.47;;;15.32;64.73
56142;BME280;42018;48.588;10.836;2023-05-08T20:49:12;97211.47;;;15.25;64.97
56142;BME280;42018;48.588;10.836;2023-05-08T20:51:57;97212.03;;;15.22;65.41
56142;BME280;42018;48.588;10.836;2023-05-08T20:54:42;97211.47;;;15.25;65.00
56142;BME280;42018;48.588;10.836;2023-05-08T20:57:29;97215.31;;;15.19;65.60
56142;BME280;42018;48.588;10.836;2023-05-08T21:00:14;97210.00;;;15.14;66.01
56142;BME280;42018;48.588;10.836;2023-05-08T21:03:00;97213.53;;;15.09;66.33
56142;BME280;42018;48.588;10.836;2023-05-08T21:05:45;97210.56;;;15.11;66.53
56142;BME280;42018;48.588;10.836;2023-05-08T21:08:31;97207.84;;;15.16;66.66
56142;BME280;42018;48.588;10.836;2023-05-08T21:11:16;97199.06;;;15.16;66.24
56142;BME280;42018;48.588;10.836;2023-05-08T21:14:01;97202.00;;;15.14;66.63
56142;BME280;42018;48.588;10.836;2023-05-08T21:16:47;97203.13;;;15.08;67.33
56142;BME280;42018;48.588;10.836;2023-05-08T21:19:34;97204.84;;;14.94;68.39
56142;BME280;42018;48.588;10.836;2023-05-08T21:22:19;97205.16;;;14.92;68.00
56142;BME280;42018;48.588;10.836;2023-05-08T21:25:05;97204.81;;;14.99;67.83